sensor_id;sensor_type;location;lat;lon;timestamp;P1;durP1;ratioP1;P2;durP2;ratioP2
803;SDS011;25687;49.976;8.240;2022-10-12T00:01:00;13.03;;;4.20;;
803;SDS011;25687;49.976;8.240;2022-10-12T00:03:26;8.27;;;3.63;;
803;SDS011;25687;49.976;8.240;2022-10-12T00:08:34;9.27;;;4.00;;
803;SDS011;25687;49.976;8.240;2022-10-12T00:11:00;9.50;;;4.03;;
803;SDS011;25687;49.976;8.240;2022-10-12T00:13:26;12.47;;;3.23;;
803;SDS011;25687;49.976;8.240;2022-10-12T00:15:52;8.13;;;3.73;;
803;SDS011;25687;49.976;8.240;2022-10-12T00:18:17;10.23;;;3.73;;
803;SDS011;25687;49.976;8.240;2022-10-12T00:20:42;10.17;;;3.60;;
803;SDS011;25687;49.976;8.240;2022-10-12T00:23:07;10.77;;;3.57;;
803;SDS011;25687;49.976;8.240;2022-10-12T00:25:37;10.70;;;3.87;;
803;SDS011;25687;49.976;8.240;2022-10-12T00:28:03;9.37;;;3.13;;
803;SDS011;25687;49.976;8.240;2022-10-12T00:30:29;8.03;;;3.20;;
803;SDS011;25687;49.976;8.240;2022-10-12T00:32:55;7.77;;;3.60;;
803;SDS011;25687;49.976;8.240;2022-10-12T00:35:21;9.00;;;3.27;;
803;SDS011;25687;49.976;8.240;2022-10-12T00:37:46;10.73;;;3.80;;
803;SDS011;25687;49.976;8.240;2022-10-12T00:40:11;8.23;;;3.50;;
803;SDS011;25687;49.976;8.240;2022-10-12T00:42:37;9.00;;;3.20;;
803;SDS011;25687;49.976;8.240;2022-10-12T00:45:02;9.80;;;4.00;;
803;SDS011;25687;49.976;8.240;2022-10-12T00:47:32;10.20;;;3.70;;
803;SDS011;25687;49.976;8.240;2022-10-12T00:52:59;7.20;;;3.57;;
803;SDS011;25687;49.976;8.240;2022-10-12T00:55:39;8.33;;;3.63;;
803;SDS011;25687;49.976;8.240;2022-10-12T00:58:10;7.80;;;4.07;;
803;SDS011;25687;49.976;8.240;2022-10-12T01:00:36;13.47;;;3.43;;
803;SDS011;25687;49.976;8.240;2022-10-12T01:03:02;11.03;;;3.70;;
803;SDS011;25687;49.976;8.240;2022-10-12T01:05:30;6.40;;;3.60;;
803;SDS011;25687;49.976;8.240;2022-10-12T01:07:55;9.03;;;3.70;;
803;SDS011;25687;49.976;8.240;2022-10-12T01:10:20;8.87;;;3.97;;
803;SDS011;25687;49.976;8.240;2022-10-12T01:12:46;11.90;;;3.80;;
803;SDS011;25687;49.976;8.240;2022-10-12T01:15:13;7.83;;;3.37;;
803;SDS011;25687;49.976;8.240;2022-10-12T01:17:42;9.50;;;3.67;;
803;SDS011;25687;49.976;8.240;2022-10-12T01:25:52;10.60;;;3.83;;
803;SDS011;25687;49.976;8.240;2022-10-12T01:31:24;9.13;;;3.47;;
803;SDS011;25687;49.976;8.240;2022-10-12T01:37:30;8.23;;;3.97;;
803;SDS011;25687;49.976;8.240;2022-10-12T01:39:54;6.93;;;3.13;;
803;SDS011;25687;49.976;8.240;2022-10-12T01:42:27;12.63;;;3.90;;
803;SDS011;25687;49.976;8.240;2022-10-12T01:45:03;8.33;;;3.50;;
803;SDS011;25687;49.976;8.240;2022-10-12T01:47:30;7.60;;;3.77;;
803;SDS011;25687;49.976;8.240;2022-10-12T01:49:57;10.90;;;3.57;;
803;SDS011;25687;49.976;8.240;2022-10-12T01:55:02;10.60;;;4.30;;
803;SDS011;25687;49.976;8.240;2022-10-12T02:00:25;9.07;;;3.50;;
803;SDS011;25687;49.976;8.240;2022-10-12T02:05:52;9.70;;;3.50;;
803;SDS011;25687;49.976;8.240;2022-10-12T02:08:23;7.87;;;3.00;;
803;SDS011;25687;49.976;8.240;2022-10-12T02:10:50;10.27;;;4.10;;
803;SDS011;25687;49.976;8.240;2022-10-12T02:13:21;8.47;;;3.63;;
803;SDS011;25687;49.976;8.240;2022-10-12T02:15:49;8.47;;;3.47;;
803;SDS011;25687;49.976;8.240;2022-10-12T02:18:18;16.63;;;5.03;;
803;SDS011;25687;49.976;8.240;2022-10-12T02:20:45;5.57;;;3.43;;
803;SDS011;25687;49.976;8.240;2022-10-12T02:23:15;11.17;;;4.03;;
803;SDS011;25687;49.976;8.240;2022-10-12T02:25:42;8.53;;;4.13;;
803;SDS011;25687;49.976;8.240;2022-10-12T02:28:09;8.57;;;3.47;;
803;SDS011;25687;49.976;8.240;2022-10-12T02:30:46;9.13;;;4.13;;
803;SDS011;25687;49.976;8.240;2022-10-12T02:33:35;11.53;;;3.73;;
803;SDS011;25687;49.976;8.240;2022-10-12T02:36:10;12.57;;;3.57;;
803;SDS011;25687;49.976;8.240;2022-10-12T02:38:41;8.90;;;3.70;;
803;SDS011;25687;49.976;8.240;2022-10-12T02:41:15;9.17;;;3.63;;
803;SDS011;25687;49.976;8.240;2022-10-12T02:43:55;11.23;;;4.10;;
803;SDS011;25687;49.976;8.240;2022-10-12T02:46:24;9.67;;;3.60;;
803;SDS011;25687;49.976;8.240;2022-10-12T02:48:52;7.47;;;3.67;;
803;SDS011;25687;49.976;8.240;2022-10-12T02:51:20;8.73;;;3.90;;
803;SDS011;25687;49.976;8.240;2022-10-12T02:53:47;6.40;;;3.57;;
803;SDS011;25687;49.976;8.240;2022-10-12T02:56:13;6.47;;;3.47;;
803;SDS011;25687;49.976;8.240;2022-10-12T02:58:43;8.70;;;3.83;;
803;SDS011;25687;49.976;8.240;2022-10-12T03:01:10;8.20;;;4.23;;
803;SDS011;25687;49.976;8.240;2022-10-12T03:03:35;8.47;;;4.23;;
803;SDS011;25687;49.976;8.240;2022-10-12T03:06:01;7.07;;;3.60;;
803;SDS011;25687;49.976;8.240;2022-10-12T03:08:26;10.23;;;4.07;;
803;SDS011;25687;49.976;8.240;2022-10-12T03:10:51;7.40;;;4.17;;
803;SDS011;25687;49.976;8.240;2022-10-12T03:13:16;9.33;;;4.40;;
803;SDS011;25687;49.976;8.240;2022-10-12T03:15:42;8.73;;;3.37;;
803;SDS011;25687;49.976;8.240;2022-10-12T03:18:07;6.50;;;2.93;;
803;SDS011;25687;49.976;8.240;2022-10-12T03:20:32;7.60;;;3.57;;
803;SDS011;25687;49.976;8.240;2022-10-12T03:22:58;8.03;;;3.93;;
803;SDS011;25687;49.976;8.240;2022-10-12T03:25:23;10.47;;;4.20;;
803;SDS011;25687;49.976;8.240;2022-10-12T03:27:48;8.20;;;3.93;;
803;SDS011;25687;49.976;8.240;2022-10-12T03:30:13;10.23;;;4.43;;
803;SDS011;25687;49.976;8.240;2022-10-12T03:32:39;7.07;;;3.53;;
803;SDS011;25687;49.976;8.240;2022-10-12T03:35:04;9.43;;;3.67;;
803;SDS011;25687;49.976;8.240;2022-10-12T03:37:30;7.57;;;4.00;;
803;SDS011;25687;49.976;8.240;2022-10-12T03:39:56;9.87;;;3.60;;
803;SDS011;25687;49.976;8.240;2022-10-12T03:42:21;7.70;;;4.00;;
803;SDS011;25687;49.976;8.240;2022-10-12T03:44:46;10.13;;;3.97;;
803;SDS011;25687;49.976;8.240;2022-10-12T03:47:12;8.93;;;4.20;;
803;SDS011;25687;49.976;8.240;2022-10-12T03:49:37;9.57;;;4.47;;
803;SDS011;25687;49.976;8.240;2022-10-12T03:52:02;9.17;;;3.90;;
803;SDS011;25687;49.976;8.240;2022-10-12T03:54:28;8.80;;;4.00;;
803;SDS011;25687;49.976;8.240;2022-10-12T03:56:53;8.37;;;3.93;;
803;SDS011;25687;49.976;8.240;2022-10-12T03:59:18;8.10;;;4.10;;
803;SDS011;25687;49.976;8.240;2022-10-12T04:01:43;9.27;;;4.33;;
803;SDS011;25687;49.976;8.240;2022-10-12T04:04:09;11.30;;;3.83;;
803;SDS011;25687;49.976;8.240;2022-10-12T04:06:35;6.60;;;4.00;;
803;SDS011;25687;49.976;8.240;2022-10-12T04:09:00;12.17;;;4.37;;
803;SDS011;25687;49.976;8.240;2022-10-12T04:11:25;11.43;;;3.97;;
803;SDS011;25687;49.976;8.240;2022-10-12T04:13:50;8.07;;;4.43;;
803;SDS011;25687;49.976;8.240;2022-10-12T04:16:16;7.37;;;3.77;;
803;SDS011;25687;49.976;8.240;2022-10-12T04:18:41;11.60;;;3.63;;
803;SDS011;25687;49.976;8.240;2022-10-12T04:21:11;9.37;;;3.73;;
803;SDS011;25687;49.976;8.240;2022-10-12T04:23:38;7.63;;;3.93;;
803;SDS011;25687;49.976;8.240;2022-10-12T04:26:05;8.83;;;4.67;;
803;SDS011;25687;49.976;8.240;2022-10-12T04:28:31;7.57;;;4.20;;
803;SDS011;25687;49.976;8.240;2022-10-12T04:30:56;9.67;;;3.97;;
803;SDS011;25687;49.976;8.240;2022-10-12T04:33:21;5.90;;;3.73;;
803;SDS011;25687;49.976;8.240;2022-10-12T04:35:47;9.70;;;4.13;;
803;SDS011;25687;49.976;8.240;2022-10-12T04:38:12;7.13;;;3.63;;
803;SDS011;25687;49.976;8.240;2022-10-12T04:40:38;9.63;;;4.30;;
803;SDS011;25687;49.976;8.240;2022-10-12T04:43:03;8.43;;;3.90;;
803;SDS011;25687;49.976;8.240;2022-10-12T04:45:28;8.33;;;4.40;;
803;SDS011;25687;49.976;8.240;2022-10-12T04:47:54;13.03;;;4.50;;
803;SDS011;25687;49.976;8.240;2022-10-12T04:50:19;6.90;;;3.83;;
803;SDS011;25687;49.976;8.240;2022-10-12T04:52:44;6.70;;;3.40;;
803;SDS011;25687;49.976;8.240;2022-10-12T04:55:10;8.60;;;3.63;;
803;SDS011;25687;49.976;8.240;2022-10-12T04:57:35;7.77;;;3.47;;
803;SDS011;25687;49.976;8.240;2022-10-12T05:00:00;7.00;;;3.13;;
803;SDS011;25687;49.976;8.240;2022-10-12T05:02:25;5.90;;;3.10;;
803;SDS011;25687;49.976;8.240;2022-10-12T05:04:51;13.63;;;3.97;;
803;SDS011;25687;49.976;8.240;2022-10-12T05:07:16;8.07;;;3.33;;
803;SDS011;25687;49.976;8.240;2022-10-12T05:09:42;6.97;;;3.60;;
803;SDS011;25687;49.976;8.240;2022-10-12T05:12:07;6.40;;;3.40;;
803;SDS011;25687;49.976;8.240;2022-10-12T05:14:32;6.17;;;3.20;;
803;SDS011;25687;49.976;8.240;2022-10-12T05:16:58;5.30;;;3.30;;
803;SDS011;25687;49.976;8.240;2022-10-12T05:19:23;10.67;;;3.80;;
803;SDS011;25687;49.976;8.240;2022-10-12T05:21:48;9.13;;;3.30;;
803;SDS011;25687;49.976;8.240;2022-10-12T05:24:13;7.10;;;3.70;;
803;SDS011;25687;49.976;8.240;2022-10-12T05:26:39;12.23;;;4.00;;
803;SDS011;25687;49.976;8.240;2022-10-12T05:29:04;10.53;;;3.50;;
803;SDS011;25687;49.976;8.240;2022-10-12T05:31:29;7.13;;;3.07;;
803;SDS011;25687;49.976;8.240;2022-10-12T05:33:55;7.53;;;3.73;;
803;SDS011;25687;49.976;8.240;2022-10-12T05:36:20;5.00;;;3.33;;
803;SDS011;25687;49.976;8.240;2022-10-12T05:38:45;7.23;;;3.53;;
803;SDS011;25687;49.976;8.240;2022-10-12T05:41:11;7.97;;;3.47;;
803;SDS011;25687;49.976;8.240;2022-10-12T05:43:36;7.60;;;3.93;;
803;SDS011;25687;49.976;8.240;2022-10-12T05:46:01;6.10;;;3.47;;
803;SDS011;25687;49.976;8.240;2022-10-12T05:48:27;17.77;;;3.87;;
803;SDS011;25687;49.976;8.240;2022-10-12T05:50:52;6.47;;;3.23;;
803;SDS011;25687;49.976;8.240;2022-10-12T05:53:18;11.87;;;3.70;;
803;SDS011;25687;49.976;8.240;2022-10-12T05:55:51;7.63;;;4.03;;
803;SDS011;25687;49.976;8.240;2022-10-12T05:58:18;8.90;;;3.60;;
803;SDS011;25687;49.976;8.240;2022-10-12T06:00:43;10.70;;;5.07;;
803;SDS011;25687;49.976;8.240;2022-10-12T06:03:08;7.07;;;4.40;;
803;SDS011;25687;49.976;8.240;2022-10-12T06:05:33;7.80;;;4.53;;
803;SDS011;25687;49.976;8.240;2022-10-12T06:07:59;14.23;;;4.40;;
803;SDS011;25687;49.976;8.240;2022-10-12T06:10:24;9.50;;;4.80;;
803;SDS011;25687;49.976;8.240;2022-10-12T06:12:49;8.07;;;4.03;;
803;SDS011;25687;49.976;8.240;2022-10-12T06:15:15;9.30;;;4.10;;
803;SDS011;25687;49.976;8.240;2022-10-12T06:17:40;8.93;;;4.30;;
803;SDS011;25687;49.976;8.240;2022-10-12T06:20:05;8.00;;;3.90;;
803;SDS011;25687;49.976;8.240;2022-10-12T06:22:31;8.03;;;3.93;;
803;SDS011;25687;49.976;8.240;2022-10-12T06:24:56;7.60;;;3.93;;
803;SDS011;25687;49.976;8.240;2022-10-12T06:27:22;8.87;;;3.70;;
803;SDS011;25687;49.976;8.240;2022-10-12T06:29:49;10.90;;;3.63;;
803;SDS011;25687;49.976;8.240;2022-10-12T06:32:14;7.70;;;3.70;;
803;SDS011;25687;49.976;8.240;2022-10-12T06:34:39;9.63;;;3.63;;
803;SDS011;25687;49.976;8.240;2022-10-12T06:37:04;11.00;;;3.43;;
803;SDS011;25687;49.976;8.240;2022-10-12T06:39:30;11.90;;;3.50;;
803;SDS011;25687;49.976;8.240;2022-10-12T06:41:55;7.57;;;4.07;;
803;SDS011;25687;49.976;8.240;2022-10-12T06:44:20;5.93;;;3.70;;
803;SDS011;25687;49.976;8.240;2022-10-12T06:46:46;7.53;;;3.73;;
803;SDS011;25687;49.976;8.240;2022-10-12T06:49:12;7.70;;;3.13;;
803;SDS011;25687;49.976;8.240;2022-10-12T06:51:38;4.70;;;3.00;;
803;SDS011;25687;49.976;8.240;2022-10-12T06:54:03;4.17;;;2.80;;
803;SDS011;25687;49.976;8.240;2022-10-12T06:56:28;6.87;;;2.80;;
803;SDS011;25687;49.976;8.240;2022-10-12T06:58:54;6.23;;;2.70;;
803;SDS011;25687;49.976;8.240;2022-10-12T07:01:20;8.77;;;3.23;;
803;SDS011;25687;49.976;8.240;2022-10-12T07:03:45;5.07;;;2.77;;
803;SDS011;25687;49.976;8.240;2022-10-12T07:06:12;6.97;;;2.83;;
803;SDS011;25687;49.976;8.240;2022-10-12T07:08:38;8.20;;;2.83;;
803;SDS011;25687;49.976;8.240;2022-10-12T07:11:05;5.50;;;2.93;;
803;SDS011;25687;49.976;8.240;2022-10-12T07:13:32;5.40;;;3.07;;
803;SDS011;25687;49.976;8.240;2022-10-12T07:15:58;5.20;;;2.63;;
803;SDS011;25687;49.976;8.240;2022-10-12T07:18:24;8.47;;;3.17;;
803;SDS011;25687;49.976;8.240;2022-10-12T07:20:50;8.90;;;3.30;;
803;SDS011;25687;49.976;8.240;2022-10-12T07:23:15;9.27;;;3.43;;
803;SDS011;25687;49.976;8.240;2022-10-12T07:25:46;9.10;;;3.20;;
803;SDS011;25687;49.976;8.240;2022-10-12T07:28:13;10.93;;;3.50;;
803;SDS011;25687;49.976;8.240;2022-10-12T07:30:38;7.73;;;3.20;;
803;SDS011;25687;49.976;8.240;2022-10-12T07:33:04;11.13;;;4.00;;
803;SDS011;25687;49.976;8.240;2022-10-12T07:35:29;7.13;;;3.63;;
803;SDS011;25687;49.976;8.240;2022-10-12T07:37:54;8.93;;;4.20;;
803;SDS011;25687;49.976;8.240;2022-10-12T07:40:19;7.00;;;3.60;;
803;SDS011;25687;49.976;8.240;2022-10-12T07:42:45;7.90;;;4.10;;
803;SDS011;25687;49.976;8.240;2022-10-12T07:45:10;10.80;;;4.27;;
803;SDS011;25687;49.976;8.240;2022-10-12T07:47:35;9.17;;;3.27;;
803;SDS011;25687;49.976;8.240;2022-10-12T07:50:00;10.33;;;3.63;;
803;SDS011;25687;49.976;8.240;2022-10-12T07:52:26;9.43;;;3.50;;
803;SDS011;25687;49.976;8.240;2022-10-12T07:54:52;8.80;;;3.63;;
803;SDS011;25687;49.976;8.240;2022-10-12T07:57:17;10.37;;;3.70;;
803;SDS011;25687;49.976;8.240;2022-10-12T07:59:43;5.80;;;3.53;;
803;SDS011;25687;49.976;8.240;2022-10-12T08:02:09;8.67;;;3.47;;
803;SDS011;25687;49.976;8.240;2022-10-12T08:04:35;8.50;;;3.33;;
803;SDS011;25687;49.976;8.240;2022-10-12T08:07:01;6.53;;;3.40;;
803;SDS011;25687;49.976;8.240;2022-10-12T08:09:26;8.40;;;3.70;;
803;SDS011;25687;49.976;8.240;2022-10-12T08:11:51;9.30;;;3.80;;
803;SDS011;25687;49.976;8.240;2022-10-12T08:14:17;9.13;;;3.67;;
803;SDS011;25687;49.976;8.240;2022-10-12T08:16:42;11.30;;;3.53;;
803;SDS011;25687;49.976;8.240;2022-10-12T08:19:08;8.17;;;3.47;;
803;SDS011;25687;49.976;8.240;2022-10-12T08:21:34;5.70;;;3.47;;
803;SDS011;25687;49.976;8.240;2022-10-12T08:23:59;10.37;;;3.50;;
803;SDS011;25687;49.976;8.240;2022-10-12T08:26:24;9.83;;;3.80;;
803;SDS011;25687;49.976;8.240;2022-10-12T08:28:49;7.47;;;3.43;;
803;SDS011;25687;49.976;8.240;2022-10-12T08:31:15;10.20;;;4.27;;
803;SDS011;25687;49.976;8.240;2022-10-12T08:33:44;7.40;;;3.77;;
803;SDS011;25687;49.976;8.240;2022-10-12T08:36:09;8.63;;;3.07;;
803;SDS011;25687;49.976;8.240;2022-10-12T08:38:35;9.37;;;3.40;;
803;SDS011;25687;49.976;8.240;2022-10-12T08:44:19;10.03;;;3.47;;
803;SDS011;25687;49.976;8.240;2022-10-12T08:46:56;14.40;;;3.77;;
803;SDS011;25687;49.976;8.240;2022-10-12T08:49:36;9.13;;;3.30;;
803;SDS011;25687;49.976;8.240;2022-10-12T08:52:04;11.20;;;3.90;;
803;SDS011;25687;49.976;8.240;2022-10-12T08:54:40;6.90;;;3.93;;
803;SDS011;25687;49.976;8.240;2022-10-12T08:57:16;9.47;;;4.33;;
803;SDS011;25687;49.976;8.240;2022-10-12T08:59:47;10.40;;;4.53;;
803;SDS011;25687;49.976;8.240;2022-10-12T09:04:45;7.93;;;3.90;;
803;SDS011;25687;49.976;8.240;2022-10-12T09:10:46;9.87;;;3.80;;
803;SDS011;25687;49.976;8.240;2022-10-12T09:16:24;11.23;;;4.10;;
803;SDS011;25687;49.976;8.240;2022-10-12T09:18:59;8.83;;;3.77;;
803;SDS011;25687;49.976;8.240;2022-10-12T09:21:31;7.37;;;3.83;;
803;SDS011;25687;49.976;8.240;2022-10-12T09:23:57;8.63;;;4.20;;
803;SDS011;25687;49.976;8.240;2022-10-12T09:26:33;8.30;;;4.70;;
803;SDS011;25687;49.976;8.240;2022-10-12T09:29:01;10.83;;;4.83;;
803;SDS011;25687;49.976;8.240;2022-10-12T09:31:40;12.37;;;5.30;;
803;SDS011;25687;49.976;8.240;2022-10-12T09:34:11;13.37;;;4.30;;
803;SDS011;25687;49.976;8.240;2022-10-12T09:36:38;8.87;;;4.13;;
803;SDS011;25687;49.976;8.240;2022-10-12T09:39:06;14.53;;;4.50;;
803;SDS011;25687;49.976;8.240;2022-10-12T09:41:46;10.47;;;5.07;;
803;SDS011;25687;49.976;8.240;2022-10-12T09:46:54;8.77;;;4.47;;
803;SDS011;25687;49.976;8.240;2022-10-12T09:49:39;11.73;;;4.10;;
803;SDS011;25687;49.976;8.240;2022-10-12T09:52:10;7.87;;;3.70;;
803;SDS011;25687;49.976;8.240;2022-10-12T09:54:44;9.13;;;3.67;;
803;SDS011;25687;49.976;8.240;2022-10-12T09:57:22;9.65;;;4.15;;
803;SDS011;25687;49.976;8.240;2022-10-12T09:59:50;9.05;;;3.85;;
803;SDS011;25687;49.976;8.240;2022-10-12T10:02:20;7.35;;;3.95;;
803;SDS011;25687;49.976;8.240;2022-10-12T10:04:50;8.13;;;4.20;;
803;SDS011;25687;49.976;8.240;2022-10-12T10:07:29;9.20;;;4.55;;
803;SDS011;25687;49.976;8.240;2022-10-12T10:12:56;10.80;;;4.05;;
803;SDS011;25687;49.976;8.240;2022-10-12T10:15:29;11.80;;;4.65;;
803;SDS011;25687;49.976;8.240;2022-10-12T10:17:57;10.30;;;4.03;;
803;SDS011;25687;49.976;8.240;2022-10-12T10:20:30;10.43;;;4.70;;
803;SDS011;25687;49.976;8.240;2022-10-12T10:22:55;9.27;;;5.20;;
803;SDS011;25687;49.976;8.240;2022-10-12T10:25:22;11.00;;;5.00;;
803;SDS011;25687;49.976;8.240;2022-10-12T10:27:49;9.93;;;5.50;;
803;SDS011;25687;49.976;8.240;2022-10-12T10:30:33;12.87;;;6.13;;
803;SDS011;25687;49.976;8.240;2022-10-12T10:33:12;12.70;;;6.23;;
803;SDS011;25687;49.976;8.240;2022-10-12T10:35:51;9.83;;;5.70;;
803;SDS011;25687;49.976;8.240;2022-10-12T10:38:19;11.03;;;5.40;;
803;SDS011;25687;49.976;8.240;2022-10-12T10:40:48;11.87;;;6.17;;
803;SDS011;25687;49.976;8.240;2022-10-12T10:43:19;11.37;;;6.30;;
803;SDS011;25687;49.976;8.240;2022-10-12T10:45:49;14.90;;;6.37;;
803;SDS011;25687;49.976;8.240;2022-10-12T10:48:27;13.57;;;6.47;;
803;SDS011;25687;49.976;8.240;2022-10-12T10:50:59;13.80;;;6.70;;
803;SDS011;25687;49.976;8.240;2022-10-12T10:53:30;11.37;;;5.83;;
803;SDS011;25687;49.976;8.240;2022-10-12T10:56:16;11.90;;;6.80;;
803;SDS011;25687;49.976;8.240;2022-10-12T10:58:51;12.40;;;7.03;;
803;SDS011;25687;49.976;8.240;2022-10-12T11:01:25;14.03;;;6.73;;
803;SDS011;25687;49.976;8.240;2022-10-12T11:06:36;7.77;;;5.80;;
803;SDS011;25687;49.976;8.240;2022-10-12T11:09:11;12.07;;;6.67;;
803;SDS011;25687;49.976;8.240;2022-10-12T11:11:44;10.77;;;5.80;;
803;SDS011;25687;49.976;8.240;2022-10-12T11:14:37;9.47;;;6.23;;
803;SDS011;25687;49.976;8.240;2022-10-12T11:17:11;11.53;;;5.83;;
803;SDS011;25687;49.976;8.240;2022-10-12T11:19:48;11.87;;;6.10;;
803;SDS011;25687;49.976;8.240;2022-10-12T11:22:19;13.53;;;6.80;;
803;SDS011;25687;49.976;8.240;2022-10-12T11:24:53;11.80;;;6.13;;
803;SDS011;25687;49.976;8.240;2022-10-12T11:27:31;16.97;;;6.30;;
803;SDS011;25687;49.976;8.240;2022-10-12T11:30:01;13.83;;;6.40;;
803;SDS011;25687;49.976;8.240;2022-10-12T11:32:31;15.83;;;6.83;;
803;SDS011;25687;49.976;8.240;2022-10-12T11:35:02;12.53;;;5.83;;
803;SDS011;25687;49.976;8.240;2022-10-12T11:37:41;10.23;;;5.83;;
803;SDS011;25687;49.976;8.240;2022-10-12T11:40:16;9.47;;;5.43;;
803;SDS011;25687;49.976;8.240;2022-10-12T11:42:54;11.77;;;5.83;;
803;SDS011;25687;49.976;8.240;2022-10-12T11:45:25;13.37;;;5.93;;
803;SDS011;25687;49.976;8.240;2022-10-12T11:47:56;11.50;;;6.77;;
803;SDS011;25687;49.976;8.240;2022-10-12T11:52:59;10.60;;;6.23;;
803;SDS011;25687;49.976;8.240;2022-10-12T11:55:44;12.33;;;6.10;;
803;SDS011;25687;49.976;8.240;2022-10-12T11:58:31;12.70;;;6.00;;
803;SDS011;25687;49.976;8.240;2022-10-12T12:04:19;10.63;;;5.33;;
803;SDS011;25687;49.976;8.240;2022-10-12T12:06:55;11.80;;;5.77;;
803;SDS011;25687;49.976;8.240;2022-10-12T12:09:33;14.90;;;6.47;;
803;SDS011;25687;49.976;8.240;2022-10-12T12:12:12;8.37;;;5.40;;
803;SDS011;25687;49.976;8.240;2022-10-12T12:19:42;9.50;;;6.30;;
803;SDS011;25687;49.976;8.240;2022-10-12T12:22:12;9.87;;;5.97;;
803;SDS011;25687;49.976;8.240;2022-10-12T12:24:58;9.03;;;6.00;;
803;SDS011;25687;49.976;8.240;2022-10-12T12:35:18;9.53;;;6.47;;
803;SDS011;25687;49.976;8.240;2022-10-12T12:37:47;13.67;;;6.73;;
803;SDS011;25687;49.976;8.240;2022-10-12T12:40:22;9.30;;;6.40;;
803;SDS011;25687;49.976;8.240;2022-10-12T12:42:48;10.73;;;5.53;;
803;SDS011;25687;49.976;8.240;2022-10-12T12:47:54;13.13;;;5.63;;
803;SDS011;25687;49.976;8.240;2022-10-12T12:50:30;10.97;;;6.10;;
803;SDS011;25687;49.976;8.240;2022-10-12T12:53:01;11.10;;;5.80;;
803;SDS011;25687;49.976;8.240;2022-10-12T12:58:12;17.90;;;6.60;;
803;SDS011;25687;49.976;8.240;2022-10-12T13:01:05;11.73;;;5.93;;
803;SDS011;25687;49.976;8.240;2022-10-12T13:06:26;14.27;;;5.90;;
803;SDS011;25687;49.976;8.240;2022-10-12T13:17:48;9.33;;;5.50;;
803;SDS011;25687;49.976;8.240;2022-10-12T13:20:30;16.80;;;6.00;;
803;SDS011;25687;49.976;8.240;2022-10-12T13:22:58;11.83;;;5.97;;
803;SDS011;25687;49.976;8.240;2022-10-12T13:25:29;12.90;;;5.77;;
803;SDS011;25687;49.976;8.240;2022-10-12T13:27:57;14.77;;;5.47;;
803;SDS011;25687;49.976;8.240;2022-10-12T13:30:34;11.13;;;6.03;;
803;SDS011;25687;49.976;8.240;2022-10-12T13:33:11;12.03;;;6.97;;
803;SDS011;25687;49.976;8.240;2022-10-12T13:35:46;9.87;;;5.67;;
803;SDS011;25687;49.976;8.240;2022-10-12T13:38:22;13.47;;;7.87;;
803;SDS011;25687;49.976;8.240;2022-10-12T13:49:10;10.57;;;6.97;;
803;SDS011;25687;49.976;8.240;2022-10-12T13:51:49;12.87;;;6.87;;
803;SDS011;25687;49.976;8.240;2022-10-12T13:56:41;15.13;;;6.80;;
803;SDS011;25687;49.976;8.240;2022-10-12T13:59:19;12.73;;;6.97;;
803;SDS011;25687;49.976;8.240;2022-10-12T14:01:48;14.17;;;6.53;;
803;SDS011;25687;49.976;8.240;2022-10-12T14:04:28;10.53;;;6.83;;
803;SDS011;25687;49.976;8.240;2022-10-12T14:06:57;12.17;;;6.60;;
803;SDS011;25687;49.976;8.240;2022-10-12T14:09:25;11.33;;;7.07;;
803;SDS011;25687;49.976;8.240;2022-10-12T14:11:55;13.53;;;7.33;;
803;SDS011;25687;49.976;8.240;2022-10-12T14:14:31;10.67;;;6.73;;
803;SDS011;25687;49.976;8.240;2022-10-12T14:16:59;17.50;;;6.47;;
803;SDS011;25687;49.976;8.240;2022-10-12T14:19:33;11.57;;;7.80;;
803;SDS011;25687;49.976;8.240;2022-10-12T14:22:04;16.87;;;8.63;;
803;SDS011;25687;49.976;8.240;2022-10-12T14:24:30;13.27;;;7.93;;
803;SDS011;25687;49.976;8.240;2022-10-12T14:26:59;12.47;;;7.23;;
803;SDS011;25687;49.976;8.240;2022-10-12T14:29:27;12.97;;;7.57;;
803;SDS011;25687;49.976;8.240;2022-10-12T14:32:07;12.83;;;8.20;;
803;SDS011;25687;49.976;8.240;2022-10-12T14:35:42;10.27;;;6.40;;
803;SDS011;25687;49.976;8.240;2022-10-12T14:37:50;12.50;;;7.03;;
803;SDS011;25687;49.976;8.240;2022-10-12T14:40:30;13.03;;;6.97;;
803;SDS011;25687;49.976;8.240;2022-10-12T14:45:28;11.57;;;7.53;;
803;SDS011;25687;49.976;8.240;2022-10-12T14:47:54;15.03;;;7.53;;
803;SDS011;25687;49.976;8.240;2022-10-12T14:50:20;13.90;;;7.57;;
803;SDS011;25687;49.976;8.240;2022-10-12T14:52:47;17.50;;;8.40;;
803;SDS011;25687;49.976;8.240;2022-10-12T14:55:21;15.43;;;8.73;;
803;SDS011;25687;49.976;8.240;2022-10-12T14:57:52;13.03;;;7.60;;
803;SDS011;25687;49.976;8.240;2022-10-12T15:00:22;12.37;;;7.80;;
803;SDS011;25687;49.976;8.240;2022-10-12T15:02:57;14.13;;;6.80;;
803;SDS011;25687;49.976;8.240;2022-10-12T15:05:24;12.67;;;8.40;;
803;SDS011;25687;49.976;8.240;2022-10-12T15:07:52;10.93;;;6.73;;
803;SDS011;25687;49.976;8.240;2022-10-12T15:10:19;15.37;;;7.37;;
803;SDS011;25687;49.976;8.240;2022-10-12T15:12:46;12.20;;;7.87;;
803;SDS011;25687;49.976;8.240;2022-10-12T15:15:16;16.43;;;7.77;;
803;SDS011;25687;49.976;8.240;2022-10-12T15:17:45;11.77;;;8.17;;
803;SDS011;25687;49.976;8.240;2022-10-12T15:20:10;11.87;;;6.83;;
803;SDS011;25687;49.976;8.240;2022-10-12T15:22:36;13.43;;;6.90;;
803;SDS011;25687;49.976;8.240;2022-10-12T15:25:04;13.77;;;7.40;;
803;SDS011;25687;49.976;8.240;2022-10-12T15:27:41;14.67;;;6.57;;
803;SDS011;25687;49.976;8.240;2022-10-12T15:30:07;11.90;;;5.77;;
803;SDS011;25687;49.976;8.240;2022-10-12T15:32:32;12.70;;;7.13;;
803;SDS011;25687;49.976;8.240;2022-10-12T15:34:58;17.67;;;7.83;;
803;SDS011;25687;49.976;8.240;2022-10-12T15:37:23;12.33;;;6.60;;
803;SDS011;25687;49.976;8.240;2022-10-12T15:39:54;13.63;;;7.17;;
803;SDS011;25687;49.976;8.240;2022-10-12T15:42:19;13.07;;;8.00;;
803;SDS011;25687;49.976;8.240;2022-10-12T15:44:45;16.33;;;7.97;;
803;SDS011;25687;49.976;8.240;2022-10-12T15:47:10;18.50;;;8.33;;
803;SDS011;25687;49.976;8.240;2022-10-12T15:49:35;12.90;;;7.83;;
803;SDS011;25687;49.976;8.240;2022-10-12T15:52:01;13.40;;;8.03;;
803;SDS011;25687;49.976;8.240;2022-10-12T15:54:26;13.23;;;7.47;;
803;SDS011;25687;49.976;8.240;2022-10-12T15:56:51;12.30;;;7.37;;
803;SDS011;25687;49.976;8.240;2022-10-12T15:59:17;12.60;;;7.63;;
803;SDS011;25687;49.976;8.240;2022-10-12T16:01:42;15.97;;;8.63;;
803;SDS011;25687;49.976;8.240;2022-10-12T16:04:08;15.33;;;7.27;;
803;SDS011;25687;49.976;8.240;2022-10-12T16:06:37;14.03;;;7.70;;
803;SDS011;25687;49.976;8.240;2022-10-12T16:09:03;13.97;;;7.33;;
803;SDS011;25687;49.976;8.240;2022-10-12T16:11:28;17.57;;;7.97;;
803;SDS011;25687;49.976;8.240;2022-10-12T16:13:53;14.90;;;7.07;;
803;SDS011;25687;49.976;8.240;2022-10-12T16:16:19;15.97;;;8.83;;
803;SDS011;25687;49.976;8.240;2022-10-12T16:18:44;11.47;;;7.33;;
803;SDS011;25687;49.976;8.240;2022-10-12T16:21:10;16.77;;;7.60;;
803;SDS011;25687;49.976;8.240;2022-10-12T16:23:37;15.10;;;7.93;;
803;SDS011;25687;49.976;8.240;2022-10-12T16:26:04;17.17;;;8.77;;
803;SDS011;25687;49.976;8.240;2022-10-12T16:28:31;29.70;;;27.47;;
803;SDS011;25687;49.976;8.240;2022-10-12T16:30:58;17.75;;;16.00;;
803;SDS011;25687;49.976;8.240;2022-10-12T16:33:23;15.97;;;7.87;;
803;SDS011;25687;49.976;8.240;2022-10-12T16:35:49;12.60;;;9.27;;
803;SDS011;25687;49.976;8.240;2022-10-12T16:38:14;22.20;;;20.27;;
803;SDS011;25687;49.976;8.240;2022-10-12T16:40:40;15.13;;;7.43;;
803;SDS011;25687;49.976;8.240;2022-10-12T16:43:06;18.57;;;16.80;;
803;SDS011;25687;49.976;8.240;2022-10-12T16:45:32;20.97;;;10.93;;
803;SDS011;25687;49.976;8.240;2022-10-12T16:47:57;18.47;;;14.97;;
803;SDS011;25687;49.976;8.240;2022-10-12T16:50:23;24.33;;;21.87;;
803;SDS011;25687;49.976;8.240;2022-10-12T16:52:48;20.23;;;15.97;;